createdAt,value
2022-08-19T00:00:36.048Z,96.82
2022-08-19T00:03:59.007Z,95.98
2022-08-19T00:07:23.071Z,95.72
2022-08-19T00:10:40.556Z,96.12
2022-08-19T00:14:04.053Z,95.13
2022-08-19T00:17:28.131Z,95.16
2022-08-19T00:20:50.999Z,94.82
2022-08-19T00:24:14.090Z,94.41
2022-08-19T00:27:36.038Z,95.03
2022-08-19T00:31:01.024Z,94.56
2022-08-19T00:34:26.002Z,94.56
2022-08-19T00:37:52.073Z,95.53
2022-08-19T00:41:15.061Z,94.97
2022-08-19T00:44:40.029Z,95.01
2022-08-19T00:48:03.070Z,95.13
2022-08-19T00:51:27.075Z,95.60
2022-08-19T00:54:52.770Z,95.33
2022-08-19T00:58:21.060Z,95.11
2022-08-19T01:01:44.137Z,95.40
2022-08-19T01:05:07.118Z,94.83
2022-08-19T01:08:32.087Z,94.50
2022-08-19T01:11:50.604Z,94.34
2022-08-19T01:15:14.056Z,94.46
2022-08-19T01:18:37.024Z,93.93
2022-08-19T01:22:14.057Z,94.10
2022-08-19T01:25:40.043Z,92.40
2022-08-19T01:29:05.221Z,93.17
2022-08-19T01:32:33.644Z,92.02
2022-08-19T01:36:00.046Z,91.51
2022-08-19T01:39:24.118Z,91.06
2022-08-19T01:42:47.095Z,91.98
2022-08-19T01:46:10.094Z,91.34
2022-08-19T01:49:35.087Z,90.94
2022-08-19T01:53:06.014Z,90.03
2022-08-19T01:56:30.109Z,90.49
2022-08-19T01:59:53.094Z,90.50
2022-08-19T02:03:15.121Z,91.07
2022-08-19T02:06:39.090Z,90.83
2022-08-19T02:10:03.150Z,90.76
2022-08-19T02:13:33.157Z,90.89
2022-08-19T02:16:57.040Z,90.38
2022-08-19T02:20:22.151Z,90.68
2022-08-19T02:23:45.103Z,90.89
2022-08-19T02:27:09.212Z,90.35
2022-08-19T02:30:34.057Z,90.58
2022-08-19T02:33:57.118Z,90.64
2022-08-19T02:37:40.049Z,91.05
2022-08-19T02:41:07.073Z,91.37
2022-08-19T02:44:31.947Z,91.50
2022-08-19T02:47:55.113Z,92.43
2022-08-19T02:51:18.069Z,91.46
2022-08-19T02:54:41.121Z,91.93
2022-08-19T02:58:06.089Z,91.40
2022-08-19T03:01:40.259Z,91.74
2022-08-19T03:05:04.050Z,91.73
2022-08-19T03:08:28.156Z,91.90
2022-08-19T03:11:52.737Z,91.99
2022-08-19T03:15:16.093Z,90.98
2022-08-19T03:18:39.146Z,91.30
2022-08-19T03:22:04.108Z,90.89
2022-08-19T03:25:28.101Z,91.63
2022-08-19T03:28:57.806Z,90.85
2022-08-19T03:32:33.078Z,91.36
2022-08-19T03:35:56.113Z,91.59
2022-08-19T03:39:19.150Z,91.21
2022-08-19T03:42:49.458Z,91.06
2022-08-19T03:46:25.093Z,91.42
2022-08-19T03:49:49.082Z,91.23
2022-08-19T03:53:12.105Z,91.54
2022-08-19T03:56:35.116Z,91.57
2022-08-19T04:00:12.989Z,91.59
2022-08-19T04:03:39.140Z,91.66
2022-08-19T04:07:02.114Z,91.67
2022-08-19T04:10:25.115Z,91.16
2022-08-19T04:13:48.117Z,91.62
2022-08-19T04:17:15.150Z,91.68
2022-08-19T04:20:39.106Z,91.78
2022-08-19T04:24:02.131Z,91.47
2022-08-19T04:27:27.113Z,91.26
2022-08-19T04:31:08.100Z,91.63
2022-08-19T04:34:32.152Z,92.38
2022-08-19T04:37:55.092Z,93.16
2022-08-19T04:41:37.173Z,93.47
2022-08-19T04:45:00.226Z,93.05
2022-08-19T04:48:27.069Z,93.13
2022-08-19T04:51:52.092Z,93.06
2022-08-19T04:55:15.199Z,93.61
2022-08-19T04:58:39.126Z,93.23
2022-08-19T05:02:03.140Z,93.27
2022-08-19T05:05:26.207Z,93.52
2022-08-19T05:08:51.186Z,94.24
2022-08-19T05:12:15.154Z,94.12
2022-08-19T05:15:39.167Z,93.63
2022-08-19T05:19:13.624Z,94.00
2022-08-19T05:22:46.206Z,94.33
2022-08-19T05:26:09.144Z,94.13
2022-08-19T05:29:36.249Z,93.94
2022-08-19T05:33:00.637Z,94.36
2022-08-19T05:36:18.204Z,93.50
2022-08-19T05:39:42.198Z,93.59
2022-08-19T05:43:05.186Z,93.33
2022-08-19T05:46:35.172Z,93.56
2022-08-19T05:50:01.138Z,93.71
2022-08-19T05:53:25.140Z,93.47
2022-08-19T05:56:48.292Z,93.26
2022-08-19T06:00:18.668Z,93.09
2022-08-19T06:03:44.188Z,92.86
2022-08-19T06:07:12.857Z,93.44
2022-08-19T06:10:36.176Z,93.41
2022-08-19T06:14:01.133Z,92.81
2022-08-19T06:17:23.162Z,92.98
2022-08-19T06:20:55.455Z,93.26
2022-08-19T06:24:17.202Z,93.79
2022-08-19T06:27:58.709Z,93.69
2022-08-19T06:31:25.221Z,93.68
2022-08-19T06:34:50.169Z,93.98
2022-08-19T06:38:14.298Z,94.09
2022-08-19T06:41:39.485Z,93.88
2022-08-19T06:45:09.213Z,94.34
2022-08-19T06:48:34.667Z,93.86
2022-08-19T06:52:02.247Z,93.78
2022-08-19T06:55:26.183Z,93.66
2022-08-19T06:58:49.300Z,93.88
2022-08-19T07:02:13.177Z,93.36
2022-08-19T07:05:36.251Z,92.89
2022-08-19T07:09:03.224Z,93.27
2022-08-19T07:12:27.196Z,93.67
2022-08-19T07:15:52.189Z,93.50
2022-08-19T07:19:18.680Z,93.11
2022-08-19T07:22:36.260Z,93.37
2022-08-19T07:25:53.441Z,92.58
2022-08-19T07:29:16.235Z,92.37
2022-08-19T07:32:40.257Z,92.70
2022-08-19T07:36:04.247Z,93.14
2022-08-19T07:39:30.216Z,93.30
2022-08-19T07:42:53.301Z,92.71
2022-08-19T07:46:16.215Z,92.77
2022-08-19T07:49:39.286Z,92.52
2022-08-19T07:53:02.195Z,93.00
2022-08-19T07:56:25.227Z,92.30
2022-08-19T07:59:49.238Z,92.15
2022-08-19T08:03:13.191Z,92.33
2022-08-19T08:07:05.246Z,92.45
2022-08-19T08:10:28.228Z,92.43
2022-08-19T08:14:01.073Z,93.01
2022-08-19T08:17:31.141Z,93.50
2022-08-19T08:21:13.238Z,94.02
2022-08-19T08:24:30.954Z,93.48
2022-08-19T08:27:50.370Z,93.61
2022-08-19T08:31:18.226Z,93.86
2022-08-19T08:34:41.275Z,93.26
2022-08-19T08:38:05.245Z,93.83
2022-08-19T08:41:40.225Z,93.82
2022-08-19T08:45:14.287Z,93.90
2022-08-19T08:48:57.243Z,93.92
2022-08-19T08:52:21.243Z,93.36
2022-08-19T08:55:45.291Z,93.70
2022-08-19T08:59:17.240Z,92.76
2022-08-19T09:02:43.367Z,93.11
2022-08-19T09:06:11.875Z,93.23
2022-08-19T09:09:44.273Z,92.91
2022-08-19T09:13:27.287Z,93.10
2022-08-19T09:16:54.272Z,92.84
2022-08-19T09:20:22.287Z,92.54
2022-08-19T09:23:46.228Z,92.67
2022-08-19T09:27:18.407Z,92.43
2022-08-19T09:30:37.301Z,92.89
2022-08-19T09:34:01.260Z,92.78
2022-08-19T09:37:24.923Z,92.96
2022-08-19T09:40:49.275Z,93.13
2022-08-19T09:44:13.260Z,92.69
2022-08-19T09:47:36.258Z,92.98
2022-08-19T09:51:01.245Z,93.55
2022-08-19T09:54:25.461Z,93.36
2022-08-19T09:57:48.225Z,93.14
2022-08-19T10:01:12.343Z,93.26
2022-08-19T10:04:54.302Z,93.21
2022-08-19T10:08:17.278Z,93.38
2022-08-19T10:11:43.150Z,93.20
2022-08-19T10:15:11.235Z,93.64
2022-08-19T10:18:36.280Z,94.03
2022-08-19T10:22:00.481Z,93.83
2022-08-19T10:25:25.295Z,93.73
2022-08-19T10:28:47.195Z,93.62
2022-08-19T10:32:05.278Z,94.14
2022-08-19T10:35:42.709Z,93.65
2022-08-19T10:39:28.643Z,92.99
2022-08-19T10:42:54.267Z,93.02
2022-08-19T10:46:17.267Z,92.63
2022-08-19T10:50:03.270Z,92.92
2022-08-19T10:53:29.306Z,93.46
2022-08-19T10:57:04.246Z,93.18
2022-08-19T11:00:27.277Z,93.42
2022-08-19T11:03:50.270Z,93.18
2022-08-19T11:07:14.356Z,93.06
2022-08-19T11:10:37.280Z,92.94
2022-08-19T11:14:02.323Z,93.52
2022-08-19T11:17:26.278Z,93.58
2022-08-19T11:20:49.267Z,93.64
2022-08-19T11:24:13.344Z,93.54
2022-08-19T11:27:38.286Z,93.77
2022-08-19T11:31:01.387Z,94.19
2022-08-19T11:34:25.267Z,94.61
2022-08-19T11:37:48.339Z,94.70
2022-08-19T11:41:16.293Z,95.36
2022-08-19T11:44:39.343Z,95.15
2022-08-19T11:48:02.260Z,95.32
2022-08-19T11:51:27.342Z,95.16
2022-08-19T11:54:50.665Z,95.32
2022-08-19T11:58:19.206Z,95.41
2022-08-19T12:01:42.275Z,95.94
2022-08-19T12:05:09.025Z,95.74
2022-08-19T12:08:35.397Z,96.10
2022-08-19T12:12:00.263Z,95.83
2022-08-19T12:15:25.338Z,95.90
2022-08-19T12:18:50.301Z,95.65
2022-08-19T12:22:16.266Z,95.12
2022-08-19T12:25:40.381Z,95.34
2022-08-19T12:29:03.325Z,94.90
2022-08-19T12:32:26.292Z,94.37
2022-08-19T12:35:50.346Z,94.44
2022-08-19T12:39:14.544Z,94.64
2022-08-19T12:42:39.331Z,94.45
2022-08-19T12:46:02.350Z,94.70
2022-08-19T12:49:52.465Z,94.37
2022-08-19T12:53:08.328Z,94.11
2022-08-19T12:56:31.333Z,94.42
2022-08-19T12:59:55.309Z,95.13
2022-08-19T13:03:17.339Z,94.49
2022-08-19T13:06:40.323Z,94.90
2022-08-19T13:10:03.331Z,94.62
2022-08-19T13:13:26.338Z,94.81
2022-08-19T13:16:50.308Z,94.43
2022-08-19T13:20:15.360Z,94.78
2022-08-19T13:23:39.333Z,95.06
2022-08-19T13:27:03.347Z,95.75
2022-08-19T13:30:45.369Z,95.33
2022-08-19T13:34:01.914Z,95.66
2022-08-19T13:37:20.376Z,95.86
2022-08-19T13:40:43.406Z,95.57
2022-08-19T13:44:06.381Z,95.53
2022-08-19T13:47:30.396Z,95.49
2022-08-19T13:50:58.338Z,95.58
2022-08-19T13:54:22.442Z,96.31
2022-08-19T13:57:48.371Z,95.95
2022-08-19T14:01:12.406Z,95.53
2022-08-19T14:04:36.358Z,95.96
2022-08-19T14:08:00.357Z,96.11
2022-08-19T14:11:23.377Z,96.05
2022-08-19T14:14:46.329Z,96.43
2022-08-19T14:18:09.385Z,96.44
2022-08-19T14:21:36.515Z,96.60
2022-08-19T14:25:04.201Z,96.47
2022-08-19T14:28:28.279Z,96.28
2022-08-19T14:31:52.417Z,96.90
2022-08-19T14:35:10.934Z,96.54
2022-08-19T14:38:31.323Z,96.61
2022-08-19T14:41:57.491Z,96.28
2022-08-19T14:45:14.406Z,95.96
2022-08-19T14:48:37.325Z,95.83
2022-08-19T14:52:05.429Z,95.55
2022-08-19T14:55:28.326Z,95.81
2022-08-19T14:58:51.389Z,95.53
2022-08-19T15:02:33.575Z,95.27
2022-08-19T15:05:57.385Z,95.14
2022-08-19T15:09:20.372Z,96.39
2022-08-19T15:12:45.156Z,97.89
2022-08-19T15:16:12.257Z,99.66
2022-08-19T15:19:44.404Z,100.00
2022-08-19T15:23:10.373Z,100.00
2022-08-19T15:26:35.415Z,100.00
2022-08-19T15:30:01.385Z,100.00
2022-08-19T15:33:29.383Z,100.00
2022-08-19T15:36:46.975Z,100.00
2022-08-19T15:40:04.482Z,100.00
2022-08-19T15:43:29.421Z,100.00
2022-08-19T15:46:54.388Z,100.00
2022-08-19T15:50:31.393Z,100.00
2022-08-19T15:53:54.345Z,100.00
2022-08-19T15:57:29.432Z,100.00
2022-08-19T16:01:12.821Z,100.00
2022-08-19T16:04:54.456Z,100.00
2022-08-19T16:08:18.395Z,100.00
2022-08-19T16:11:45.453Z,100.00
2022-08-19T16:15:10.389Z,100.00
2022-08-19T16:18:36.439Z,100.00
2022-08-19T16:22:02.380Z,100.00
2022-08-19T16:25:26.463Z,100.00
2022-08-19T16:28:49.395Z,100.00
2022-08-19T16:32:12.410Z,100.00
2022-08-19T16:35:35.400Z,100.00
2022-08-19T16:38:59.441Z,100.00
2022-08-19T16:42:23.431Z,100.00
2022-08-19T16:45:46.436Z,100.00
2022-08-19T16:49:09.441Z,100.00
2022-08-19T16:52:34.459Z,100.00
2022-08-19T16:56:01.472Z,100.00
2022-08-19T16:59:24.390Z,100.00
2022-08-19T17:02:50.646Z,100.00
2022-08-19T17:06:18.383Z,100.00
2022-08-19T17:09:43.447Z,100.00
2022-08-19T17:13:06.399Z,100.00
2022-08-19T17:16:40.562Z,100.00
2022-08-19T17:20:03.386Z,100.00
2022-08-19T17:23:42.112Z,100.00
2022-08-19T17:27:06.638Z,100.00
2022-08-19T17:30:29.434Z,100.00
2022-08-19T17:33:52.474Z,100.00
2022-08-19T17:37:18.412Z,100.00
2022-08-19T17:40:41.475Z,100.00
2022-08-19T17:44:04.449Z,100.00
2022-08-19T17:47:29.559Z,100.00
2022-08-19T17:50:53.414Z,100.00
2022-08-19T17:54:18.493Z,100.00
2022-08-19T17:57:44.703Z,100.00
2022-08-19T18:01:10.460Z,100.00
2022-08-19T18:04:33.461Z,100.00
2022-08-19T18:07:58.478Z,100.00
2022-08-19T18:11:22.435Z,100.00
2022-08-19T18:14:49.521Z,100.00
2022-08-19T18:18:15.572Z,100.00
2022-08-19T18:21:39.486Z,100.00
2022-08-19T18:25:02.431Z,99.79
2022-08-19T18:28:26.485Z,100.00
2022-08-19T18:31:51.429Z,100.00
2022-08-19T18:35:18.502Z,99.83
2022-08-19T18:39:01.117Z,100.00
2022-08-19T18:42:50.473Z,99.46
2022-08-19T18:46:33.030Z,99.75
2022-08-19T18:49:54.519Z,98.54
2022-08-19T18:53:17.477Z,98.10
2022-08-19T18:56:41.513Z,97.54
2022-08-19T19:00:05.522Z,96.86
2022-08-19T19:03:28.510Z,96.65
2022-08-19T19:06:52.582Z,97.07
2022-08-19T19:10:15.493Z,96.03
2022-08-19T19:13:38.499Z,95.85
2022-08-19T19:17:01.508Z,95.92
2022-08-19T19:20:26.464Z,96.21
2022-08-19T19:23:59.508Z,96.55
2022-08-19T19:27:22.492Z,97.11
2022-08-19T19:30:45.449Z,96.59
2022-08-19T19:34:29.050Z,96.75
2022-08-19T19:37:59.467Z,96.32
2022-08-19T19:41:22.897Z,96.67
2022-08-19T19:44:40.430Z,96.52
2022-08-19T19:48:05.601Z,96.41
2022-08-19T19:51:29.528Z,96.16
2022-08-19T19:54:56.467Z,96.20
2022-08-19T19:58:22.780Z,95.66
2022-08-19T20:01:54.664Z,95.80
2022-08-19T20:05:17.515Z,95.64
2022-08-19T20:09:00.496Z,95.68
2022-08-19T20:12:23.472Z,95.73
2022-08-19T20:15:46.552Z,95.80
2022-08-19T20:19:10.497Z,95.09
2022-08-19T20:22:33.863Z,94.81
2022-08-19T20:25:57.496Z,94.63
2022-08-19T20:29:37.889Z,94.65
2022-08-19T20:33:04.495Z,95.10
2022-08-19T20:36:28.579Z,94.08
2022-08-19T20:39:52.571Z,94.27
2022-08-19T20:43:16.540Z,93.37
2022-08-19T20:46:33.117Z,93.24
2022-08-19T20:49:50.524Z,93.32
2022-08-19T20:53:13.488Z,92.69
2022-08-19T20:56:36.553Z,93.45
2022-08-19T20:59:59.489Z,91.61
2022-08-19T21:03:23.565Z,93.28
2022-08-19T21:06:47.555Z,92.29
2022-08-19T21:10:10.673Z,92.63
2022-08-19T21:13:35.582Z,92.72
2022-08-19T21:16:58.568Z,92.48
2022-08-19T21:20:22.634Z,90.96
2022-08-19T21:23:46.537Z,91.86
2022-08-19T21:27:09.672Z,91.07
2022-08-19T21:30:32.684Z,90.76
2022-08-19T21:33:55.517Z,91.66
2022-08-19T21:37:24.725Z,91.42
2022-08-19T21:40:49.747Z,91.97
2022-08-19T21:44:11.587Z,91.31
2022-08-19T21:47:34.688Z,91.92
2022-08-19T21:50:58.534Z,91.87
2022-08-19T21:54:24.702Z,91.29
2022-08-19T21:57:48.640Z,90.66
2022-08-19T22:01:13.675Z,90.27
2022-08-19T22:04:36.544Z,90.91
2022-08-19T22:07:59.814Z,90.18
2022-08-19T22:11:23.543Z,91.59
2022-08-19T22:14:46.579Z,91.65
2022-08-19T22:18:11.548Z,92.38
2022-08-19T22:21:40.283Z,92.38
2022-08-19T22:25:06.556Z,92.03
2022-08-19T22:28:31.590Z,90.66
2022-08-19T22:31:58.096Z,90.20
2022-08-19T22:35:21.590Z,89.72
2022-08-19T22:38:45.543Z,90.16
2022-08-19T22:42:08.616Z,90.63
2022-08-19T22:45:31.529Z,92.97
2022-08-19T22:49:00.749Z,94.20
2022-08-19T22:52:27.557Z,93.23
2022-08-19T22:55:52.598Z,93.99
2022-08-19T22:59:16.540Z,91.10
2022-08-19T23:02:51.738Z,89.61
2022-08-19T23:06:16.576Z,89.76
2022-08-19T23:09:39.592Z,89.10
2022-08-19T23:13:04.600Z,89.31
2022-08-19T23:16:27.548Z,88.89
2022-08-19T23:19:51.594Z,88.81
2022-08-19T23:23:16.589Z,88.80
2022-08-19T23:26:39.605Z,89.01
2022-08-19T23:30:21.599Z,87.96
2022-08-19T23:33:51.905Z,88.92
2022-08-19T23:37:15.587Z,87.64
2022-08-19T23:40:38.614Z,88.41
2022-08-19T23:44:02.555Z,87.19
2022-08-19T23:47:27.609Z,86.87
2022-08-19T23:50:47.611Z,87.79
2022-08-19T23:54:04.613Z,87.79
2022-08-19T23:57:27.558Z,87.67
